Time;durP1;ratioP1;P1;durP2;ratioP2;P2;SDS_P1;SDS_P2;PMS_P1;PMS_P2;Temp;Humidity;BMP_temperature;BMP_pressure;BME280_temperature;BME280_humidity;BME280_pressure;Samples;Min_cycle;Max_cycle;Signal;HPM_P1;HPM_P2
2021/04/18 00:01:05;;;;;;;4.10;3.70;;;;;;;;;;4902731;29;20247;-84
2021/04/18 00:03:31;;;;;;;3.78;3.47;;;;;;;;;;4917629;29;20195;-84
2021/04/18 00:05:57;;;;;;;5.60;4.43;;;;;;;;;;4914358;29;20215;-82
2021/04/18 00:08:24;;;;;;;5.25;3.97;;;;;;;;;;4930583;29;20621;-79
2021/04/18 00:10:50;;;;;;;4.82;3.72;;;;;;;;;;4917586;29;20736;-82
2021/04/18 00:13:18;;;;;;;6.75;4.50;;;;;;;;;;4936400;29;20206;-83
2021/04/18 00:15:47;;;;;;;6.13;3.78;;;;;;;;;;4916725;29;20174;-79
2021/04/18 00:18:15;;;;;;;4.07;3.75;;;;;;;;;;4933471;29;20197;-80
2021/04/18 00:20:41;;;;;;;5.40;3.75;;;;;;;;;;4937482;29;20360;-81
2021/04/18 00:23:07;;;;;;;4.28;3.88;;;;;;;;;;4936817;28;20235;-80
2021/04/18 00:25:33;;;;;;;5.30;3.50;;;;;;;;;;4936870;29;20277;-81
2021/04/18 00:27:59;;;;;;;4.25;3.85;;;;;;;;;;4935131;29;20509;-83
2021/04/18 00:30:25;;;;;;;4.33;3.53;;;;;;;;;;4938711;29;20268;-81
2021/04/18 00:32:51;;;;;;;3.75;3.45;;;;;;;;;;4935147;29;20465;-82
2021/04/18 00:35:19;;;;;;;6.63;3.85;;;;;;;;;;4934231;29;20194;-79
2021/04/18 00:37:45;;;;;;;6.80;4.55;;;;;;;;;;4933288;29;20249;-82
2021/04/18 00:40:13;;;;;;;5.05;4.55;;;;;;;;;;4935323;29;20223;-81
2021/04/18 00:42:39;;;;;;;8.02;4.38;;;;;;;;;;4939355;29;20527;-85
2021/04/18 00:45:06;;;;;;;6.05;4.95;;;;;;;;;;4939510;29;20233;-79
2021/04/18 00:47:33;;;;;;;5.30;4.80;;;;;;;;;;4938238;29;20181;-83
2021/04/18 00:50:03;;;;;;;5.18;4.72;;;;;;;;;;4921603;29;20630;-83
2021/04/18 00:52:29;;;;;;;10.50;5.75;;;;;;;;;;4920539;29;20203;-83
2021/04/18 00:54:55;;;;;;;14.77;5.10;;;;;;;;;;4922091;29;20699;-84
2021/04/18 00:57:37;;;;;;;7.70;6.10;;;;;;;;;;4945360;29;20172;-85
2021/04/18 01:00:07;;;;;;;10.85;5.35;;;;;;;;;;4961145;29;20501;-79
2021/04/18 01:02:33;;;;;;;12.80;4.82;;;;;;;;;;4949462;29;20183;-83
2021/04/18 01:04:59;;;;;;;9.00;5.93;;;;;;;;;;4937299;29;20197;-84
2021/04/18 01:07:26;;;;;;;10.13;5.37;;;;;;;;;;4937854;29;20178;-77
2021/04/18 01:09:52;;;;;;;5.93;5.32;;;;;;;;;;4938228;29;20474;-82
2021/04/18 01:12:18;;;;;;;5.63;5.00;;;;;;;;;;4938955;28;20617;-80
2021/04/18 01:14:44;;;;;;;8.48;5.35;;;;;;;;;;4937203;29;20469;-81
2021/04/18 01:17:10;;;;;;;9.55;5.35;;;;;;;;;;4936564;29;20178;-83
2021/04/18 01:19:36;;;;;;;6.40;5.13;;;;;;;;;;4936959;29;20217;-83
2021/04/18 01:22:03;;;;;;;7.80;5.40;;;;;;;;;;4937902;29;20449;-77
2021/04/18 01:24:29;;;;;;;5.00;4.47;;;;;;;;;;4935596;28;20248;-85
2021/04/18 01:26:55;;;;;;;4.95;4.45;;;;;;;;;;4919887;29;20534;-77
2021/04/18 01:29:21;;;;;;;4.60;4.20;;;;;;;;;;4948815;29;20523;-81
2021/04/18 01:31:47;;;;;;;7.63;6.23;;;;;;;;;;4941825;29;20282;-82
2021/04/18 01:34:13;;;;;;;5.97;5.47;;;;;;;;;;4938253;29;20457;-82
2021/04/18 01:36:42;;;;;;;6.55;5.35;;;;;;;;;;4939459;29;20438;-84
2021/04/18 01:39:08;;;;;;;6.25;5.10;;;;;;;;;;4941495;29;20241;-84
2021/04/18 01:41:34;;;;;;;6.30;5.70;;;;;;;;;;4939079;29;20613;-81
2021/04/18 01:44:00;;;;;;;6.25;5.70;;;;;;;;;;4936376;29;20867;-81
2021/04/18 01:46:26;;;;;;;5.47;4.93;;;;;;;;;;4939958;29;20286;-80
2021/04/18 01:48:52;;;;;;;5.23;4.73;;;;;;;;;;4936058;29;20860;-82
2021/04/18 01:51:18;;;;;;;6.13;5.47;;;;;;;;;;4939588;29;20437;-84
2021/04/18 01:53:44;;;;;;;6.10;5.50;;;;;;;;;;4935413;29;20182;-77
2021/04/18 01:56:10;;;;;;;6.47;5.95;;;;;;;;;;4941443;29;20266;-79
2021/04/18 01:58:36;;;;;;;6.22;5.70;;;;;;;;;;4936288;29;20629;-79
2021/04/18 02:01:03;;;;;;;6.57;5.85;;;;;;;;;;4936185;29;20222;-82
2021/04/18 02:03:29;;;;;;;6.47;5.88;;;;;;;;;;4937343;29;20191;-80
2021/04/18 02:05:55;;;;;;;6.10;5.50;;;;;;;;;;4937667;29;20254;-84
2021/04/18 02:08:21;;;;;;;6.50;5.90;;;;;;;;;;4935432;29;20451;-79
2021/04/18 02:10:47;;;;;;;6.88;6.18;;;;;;;;;;4935410;29;20808;-81
2021/04/18 02:13:13;;;;;;;5.40;5.00;;;;;;;;;;4935799;29;20202;-82
2021/04/18 02:15:39;;;;;;;6.30;5.70;;;;;;;;;;4939364;29;20182;-78
2021/04/18 02:18:05;;;;;;;7.93;5.80;;;;;;;;;;4935619;29;20473;-80
2021/04/18 02:20:31;;;;;;;7.10;6.20;;;;;;;;;;4927419;29;20804;-82
2021/04/18 02:22:57;;;;;;;6.43;5.93;;;;;;;;;;4934809;28;20436;-82
2021/04/18 02:25:23;;;;;;;6.13;5.63;;;;;;;;;;4936302;29;20918;-79
2021/04/18 02:27:49;;;;;;;9.73;6.10;;;;;;;;;;4936801;29;20216;-80
2021/04/18 02:30:15;;;;;;;6.73;5.87;;;;;;;;;;4936657;29;20541;-79
2021/04/18 02:32:43;;;;;;;7.43;6.65;;;;;;;;;;4935199;29;20433;-77
2021/04/18 02:35:10;;;;;;;8.45;6.40;;;;;;;;;;4937330;29;20202;-82
2021/04/18 02:37:36;;;;;;;8.82;6.13;;;;;;;;;;4935484;29;20182;-81
2021/04/18 02:40:02;;;;;;;8.40;5.93;;;;;;;;;;4936421;29;20254;-80
2021/04/18 02:42:28;;;;;;;8.05;5.13;;;;;;;;;;4936302;29;20195;-80
2021/04/18 02:44:54;;;;;;;10.87;6.20;;;;;;;;;;4937656;29;20191;-80
2021/04/18 02:47:20;;;;;;;8.50;6.30;;;;;;;;;;4935281;29;20831;-81
2021/04/18 02:49:46;;;;;;;10.63;6.40;;;;;;;;;;4933946;29;20180;-83
2021/04/18 02:52:12;;;;;;;10.45;6.63;;;;;;;;;;4935422;29;21051;-82
2021/04/18 02:54:38;;;;;;;7.13;6.43;;;;;;;;;;4938854;29;20281;-79
2021/04/18 02:57:04;;;;;;;6.73;6.03;;;;;;;;;;4938969;29;20799;-80
2021/04/18 02:59:30;;;;;;;9.98;6.28;;;;;;;;;;4940334;29;20997;-78
2021/04/18 03:01:56;;;;;;;11.95;6.40;;;;;;;;;;4936933;29;20176;-78
2021/04/18 03:04:22;;;;;;;8.95;6.57;;;;;;;;;;4936692;29;20182;-77
2021/04/18 03:06:48;;;;;;;14.90;6.50;;;;;;;;;;4935024;29;20202;-77
2021/04/18 03:09:14;;;;;;;7.13;6.43;;;;;;;;;;4909809;29;20463;-79
2021/04/18 03:11:40;;;;;;;8.47;6.87;;;;;;;;;;4894154;29;20455;-79
2021/04/18 03:14:06;;;;;;;7.80;7.00;;;;;;;;;;4910659;29;20468;-81
2021/04/18 03:16:32;;;;;;;7.80;7.03;;;;;;;;;;4911211;29;20537;-78
2021/04/18 03:18:58;;;;;;;13.35;7.43;;;;;;;;;;4910784;29;20192;-78
2021/04/18 03:21:24;;;;;;;7.70;6.90;;;;;;;;;;4910721;29;20635;-78
2021/04/18 03:23:50;;;;;;;8.17;6.93;;;;;;;;;;4910116;29;20586;-79
2021/04/18 03:26:16;;;;;;;9.07;6.18;;;;;;;;;;4912730;29;20451;-81
2021/04/18 03:28:42;;;;;;;9.23;6.57;;;;;;;;;;4907374;29;20196;-76
2021/04/18 03:31:08;;;;;;;8.15;6.30;;;;;;;;;;4930171;29;20448;-81
2021/04/18 03:33:34;;;;;;;7.33;6.73;;;;;;;;;;4912889;29;20191;-81
2021/04/18 03:36:00;;;;;;;7.87;6.97;;;;;;;;;;4910764;29;20804;-81
2021/04/18 03:38:26;;;;;;;8.65;7.72;;;;;;;;;;4909889;29;20464;-84
2021/04/18 03:40:52;;;;;;;11.27;7.50;;;;;;;;;;4931792;29;20245;-83
2021/04/18 03:43:18;;;;;;;8.23;7.47;;;;;;;;;;4935143;29;20554;-82
2021/04/18 03:45:44;;;;;;;7.60;6.45;;;;;;;;;;4935665;29;20816;-81
2021/04/18 03:48:10;;;;;;;9.97;8.03;;;;;;;;;;4938849;29;20213;-80
2021/04/18 03:50:36;;;;;;;8.65;7.85;;;;;;;;;;4923237;29;21007;-83
2021/04/18 03:53:02;;;;;;;9.60;7.30;;;;;;;;;;4935942;29;20222;-84
2021/04/18 03:55:28;;;;;;;10.50;7.35;;;;;;;;;;4936138;29;20776;-82
2021/04/18 03:57:54;;;;;;;7.88;7.13;;;;;;;;;;4933075;29;20585;-82
2021/04/18 04:00:21;;;;;;;8.85;7.63;;;;;;;;;;4935903;29;20215;-85
2021/04/18 04:02:47;;;;;;;9.32;8.43;;;;;;;;;;4918422;29;20199;-83
2021/04/18 04:05:13;;;;;;;8.83;7.93;;;;;;;;;;4935076;29;20194;-84
2021/04/18 04:07:39;;;;;;;9.43;8.52;;;;;;;;;;4935959;29;20440;-83
2021/04/18 04:10:05;;;;;;;9.73;8.82;;;;;;;;;;4936704;29;20274;-84
2021/04/18 04:12:32;;;;;;;9.57;8.70;;;;;;;;;;4935348;29;20187;-85
2021/04/18 04:14:58;;;;;;;8.77;7.97;;;;;;;;;;4935717;29;20183;-84
2021/04/18 04:17:26;;;;;;;8.60;7.90;;;;;;;;;;4942945;29;20183;-84
2021/04/18 04:19:52;;;;;;;9.23;8.30;;;;;;;;;;4943020;29;20521;-84
2021/04/18 04:22:18;;;;;;;9.23;8.17;;;;;;;;;;4940568;29;20584;-83
2021/04/18 04:24:44;;;;;;;9.10;7.63;;;;;;;;;;4941154;28;20501;-83
2021/04/18 04:27:10;;;;;;;9.70;8.70;;;;;;;;;;4943417;29;20449;-84
2021/04/18 04:29:36;;;;;;;8.90;7.47;;;;;;;;;;4941470;29;20177;-83
2021/04/18 04:32:02;;;;;;;9.40;8.50;;;;;;;;;;4940876;29;20434;-82
2021/04/18 04:34:28;;;;;;;9.65;8.30;;;;;;;;;;4923489;29;20288;-83
2021/04/18 04:36:53;;;;;;;8.40;7.50;;;;;;;;;;4943108;29;20269;-84
2021/04/18 04:39:19;;;;;;;9.80;8.80;;;;;;;;;;4944997;28;20999;-84
2021/04/18 04:41:45;;;;;;;11.00;9.90;;;;;;;;;;4940691;29;20452;-85
2021/04/18 04:44:16;;;;;;;7.93;7.20;;;;;;;;;;4940760;29;20216;-84
2021/04/18 04:46:42;;;;;;;9.25;8.25;;;;;;;;;;4939595;29;20449;-81
2021/04/18 04:49:08;;;;;;;9.45;8.45;;;;;;;;;;4942498;29;20261;-84
2021/04/18 04:51:34;;;;;;;8.63;7.90;;;;;;;;;;4942849;29;20655;-83
2021/04/18 04:54:00;;;;;;;9.02;8.13;;;;;;;;;;4939204;29;20440;-82
2021/04/18 04:56:26;;;;;;;9.43;8.38;;;;;;;;;;4923818;29;20191;-85
2021/04/18 04:58:52;;;;;;;9.37;8.30;;;;;;;;;;4942918;29;20223;-82
2021/04/18 05:01:18;;;;;;;8.55;7.75;;;;;;;;;;4940606;29;20461;-81
2021/04/18 05:03:44;;;;;;;9.50;8.60;;;;;;;;;;4941244;29;20190;-83
2021/04/18 05:06:10;;;;;;;9.97;8.83;;;;;;;;;;4943021;29;20434;-83
2021/04/18 05:08:36;;;;;;;10.50;9.40;;;;;;;;;;4941139;29;20472;-85
2021/04/18 05:11:02;;;;;;;9.23;8.33;;;;;;;;;;4942225;28;20446;-81
2021/04/18 05:13:28;;;;;;;10.43;9.43;;;;;;;;;;4966256;29;20439;-80
2021/04/18 05:15:54;;;;;;;9.65;8.65;;;;;;;;;;4964861;28;20454;-80
2021/04/18 05:18:20;;;;;;;10.32;9.18;;;;;;;;;;4944831;29;20174;-84
2021/04/18 05:20:46;;;;;;;9.53;8.53;;;;;;;;;;4943289;29;20274;-81
2021/04/18 05:23:12;;;;;;;10.23;9.23;;;;;;;;;;4959143;28;20480;-83
2021/04/18 05:25:38;;;;;;;9.40;8.60;;;;;;;;;;4936868;29;20821;-83
2021/04/18 05:28:04;;;;;;;10.97;8.57;;;;;;;;;;4955940;28;20437;-85
2021/04/18 05:30:30;;;;;;;9.43;8.45;;;;;;;;;;4952300;29;20450;-79
2021/04/18 05:32:56;;;;;;;10.48;9.27;;;;;;;;;;4945904;29;20174;-84
2021/04/18 05:35:23;;;;;;;11.45;9.10;;;;;;;;;;4954956;29;20535;-85
2021/04/18 05:37:49;;;;;;;9.20;8.30;;;;;;;;;;4940669;29;20179;-86
2021/04/18 05:40:15;;;;;;;9.17;8.27;;;;;;;;;;4945187;29;20705;-83
2021/04/18 05:42:41;;;;;;;12.20;8.25;;;;;;;;;;4947784;29;20476;-83
2021/04/18 05:45:07;;;;;;;8.70;7.65;;;;;;;;;;4938005;29;20187;-84
2021/04/18 05:47:33;;;;;;;9.30;7.70;;;;;;;;;;4937646;29;20721;-81
2021/04/18 05:50:00;;;;;;;10.93;9.20;;;;;;;;;;4939927;29;20175;-84
2021/04/18 05:52:25;;;;;;;8.95;8.05;;;;;;;;;;4939755;29;20182;-79
2021/04/18 05:54:52;;;;;;;11.10;7.70;;;;;;;;;;4957574;29;20250;-84
2021/04/18 05:57:19;;;;;;;10.23;9.07;;;;;;;;;;4940684;29;20482;-81
2021/04/18 05:59:45;;;;;;;9.85;8.85;;;;;;;;;;4944056;29;20243;-84
2021/04/18 06:02:11;;;;;;;10.97;9.03;;;;;;;;;;4945424;29;20233;-82
2021/04/18 06:04:37;;;;;;;9.43;8.13;;;;;;;;;;4920454;29;20480;-83
2021/04/18 06:07:04;;;;;;;9.75;8.70;;;;;;;;;;4940434;29;20501;-81
2021/04/18 06:09:30;;;;;;;9.10;8.20;;;;;;;;;;4944072;29;20188;-84
2021/04/18 06:11:56;;;;;;;9.23;8.32;;;;;;;;;;4939795;29;20202;-82
2021/04/18 06:14:22;;;;;;;10.40;8.18;;;;;;;;;;4938253;29;20178;-83
2021/04/18 06:16:49;;;;;;;10.75;7.85;;;;;;;;;;4939020;29;20264;-84
2021/04/18 06:19:16;;;;;;;10.23;8.70;;;;;;;;;;4938765;29;20209;-84
2021/04/18 06:21:42;;;;;;;6.68;6.13;;;;;;;;;;4922456;29;20183;-80
2021/04/18 06:24:08;;;;;;;8.68;7.55;;;;;;;;;;4938786;29;20231;-81
2021/04/18 06:26:34;;;;;;;8.10;6.82;;;;;;;;;;4937120;29;20173;-85
2021/04/18 06:29:01;;;;;;;9.13;8.35;;;;;;;;;;4952096;29;20191;-85
2021/04/18 06:31:27;;;;;;;12.73;9.18;;;;;;;;;;4955960;29;20171;-80
2021/04/18 06:33:53;;;;;;;7.55;6.95;;;;;;;;;;4954955;29;20229;-83
2021/04/18 06:36:19;;;;;;;7.50;6.78;;;;;;;;;;4937895;29;20202;-76
2021/04/18 06:38:45;;;;;;;8.38;7.57;;;;;;;;;;4933601;29;20709;-77
2021/04/18 06:41:15;;;;;;;8.55;7.65;;;;;;;;;;4937447;29;20285;-79
2021/04/18 06:43:41;;;;;;;9.35;8.20;;;;;;;;;;4937160;29;20242;-82
2021/04/18 06:46:07;;;;;;;8.52;7.32;;;;;;;;;;4941672;29;20253;-84
2021/04/18 06:48:34;;;;;;;10.82;7.22;;;;;;;;;;4939988;29;20179;-81
2021/04/18 06:51:00;;;;;;;9.38;8.50;;;;;;;;;;4938378;29;20198;-85
2021/04/18 06:53:26;;;;;;;9.00;7.10;;;;;;;;;;4940320;28;20183;-85
2021/04/18 06:55:52;;;;;;;8.13;7.20;;;;;;;;;;4936100;29;20445;-84
2021/04/18 06:58:18;;;;;;;9.32;7.55;;;;;;;;;;4956295;29;20171;-78
2021/04/18 07:00:44;;;;;;;8.50;7.70;;;;;;;;;;4970571;29;20222;-84
2021/04/18 07:03:10;;;;;;;8.73;7.83;;;;;;;;;;4929775;29;20182;-82
2021/04/18 07:05:44;;;;;;;8.97;7.67;;;;;;;;;;4921343;29;20463;-77
2021/04/18 07:08:19;;;;;;;8.50;7.70;;;;;;;;;;4939909;28;20443;-77
2021/04/18 07:10:45;;;;;;;9.32;8.35;;;;;;;;;;4949112;28;20599;-78
2021/04/18 07:13:15;;;;;;;9.65;8.68;;;;;;;;;;4948620;29;20552;-80
2021/04/18 07:15:43;;;;;;;9.50;8.45;;;;;;;;;;4947073;28;20178;-78
2021/04/18 07:18:10;;;;;;;9.15;8.25;;;;;;;;;;4948420;28;20195;-78
2021/04/18 07:20:56;;;;;;;10.65;8.55;;;;;;;;;;4937632;29;20207;-78
2021/04/18 07:23:28;;;;;;;12.30;8.88;;;;;;;;;;4939465;28;20299;-77
2021/04/18 07:25:59;;;;;;;8.77;7.88;;;;;;;;;;4942113;29;20187;-77
2021/04/18 07:28:26;;;;;;;10.10;8.48;;;;;;;;;;4935612;29;20538;-77
2021/04/18 07:31:02;;;;;;;9.23;8.32;;;;;;;;;;4935427;29;20189;-81
2021/04/18 07:33:28;;;;;;;9.18;8.23;;;;;;;;;;4935387;29;20166;-76
2021/04/18 07:35:55;;;;;;;8.95;8.10;;;;;;;;;;4944922;29;20242;-77
2021/04/18 07:38:21;;;;;;;9.30;8.40;;;;;;;;;;4954770;29;20203;-76
2021/04/18 07:40:49;;;;;;;10.13;9.15;;;;;;;;;;4954481;29;20208;-77
2021/04/18 07:43:18;;;;;;;11.57;8.95;;;;;;;;;;4937463;29;20711;-77
2021/04/18 07:45:44;;;;;;;8.32;7.63;;;;;;;;;;4918753;29;20666;-77
2021/04/18 07:48:12;;;;;;;10.63;9.52;;;;;;;;;;4935267;29;20255;-75
2021/04/18 07:50:39;;;;;;;12.40;8.18;;;;;;;;;;4934733;29;20183;-77
2021/04/18 07:53:07;;;;;;;10.55;9.30;;;;;;;;;;4935352;29;20193;-76
2021/04/18 07:55:33;;;;;;;9.10;8.15;;;;;;;;;;4935172;29;20175;-77
2021/04/18 07:58:00;;;;;;;8.50;7.70;;;;;;;;;;4918323;29;20180;-78
2021/04/18 08:00:29;;;;;;;8.85;7.88;;;;;;;;;;4937498;29;20566;-80
2021/04/18 08:02:56;;;;;;;9.50;8.57;;;;;;;;;;4934907;29;20204;-78
2021/04/18 08:05:25;;;;;;;9.00;7.93;;;;;;;;;;4941959;28;20531;-83
2021/04/18 08:08:13;;;;;;;10.20;8.67;;;;;;;;;;4953533;29;20438;-80
2021/04/18 08:10:41;;;;;;;9.63;7.43;;;;;;;;;;4935609;29;20419;-80
2021/04/18 08:13:11;;;;;;;8.13;7.33;;;;;;;;;;4935107;29;20431;-80
2021/04/18 08:15:39;;;;;;;9.10;7.87;;;;;;;;;;4946298;29;20447;-77
2021/04/18 08:18:06;;;;;;;9.00;8.10;;;;;;;;;;4934879;29;20417;-80
2021/04/18 08:20:34;;;;;;;13.60;8.20;;;;;;;;;;4935260;29;20250;-76
2021/04/18 08:23:02;;;;;;;7.97;6.60;;;;;;;;;;4935583;28;20498;-75
2021/04/18 08:25:29;;;;;;;7.60;6.63;;;;;;;;;;4935486;29;20440;-78
2021/04/18 08:28:06;;;;;;;6.88;6.18;;;;;;;;;;4935178;29;20415;-78
2021/04/18 08:30:53;;;;;;;10.60;8.30;;;;;;;;;;4934965;29;20278;-79
2021/04/18 08:33:38;;;;;;;10.10;6.40;;;;;;;;;;4935617;29;20538;-79
2021/04/18 08:36:15;;;;;;;11.67;7.37;;;;;;;;;;4935055;29;20427;-83
2021/04/18 08:38:42;;;;;;;13.27;7.60;;;;;;;;;;4935052;29;20428;-83
2021/04/18 08:41:11;;;;;;;12.60;8.27;;;;;;;;;;4935069;29;20882;-82
2021/04/18 08:43:38;;;;;;;8.20;7.10;;;;;;;;;;4939168;29;20860;-78
2021/04/18 08:46:04;;;;;;;7.97;7.27;;;;;;;;;;4945678;29;20440;-80
2021/04/18 08:48:31;;;;;;;7.70;6.30;;;;;;;;;;4939089;29;20511;-79
2021/04/18 08:50:58;;;;;;;7.60;6.50;;;;;;;;;;4935601;29;20443;-79
2021/04/18 08:53:26;;;;;;;9.47;7.07;;;;;;;;;;4935051;29;20926;-78
2021/04/18 08:55:54;;;;;;;8.80;7.90;;;;;;;;;;4934617;29;20439;-78
2021/04/18 08:58:34;;;;;;;10.03;8.67;;;;;;;;;;4934446;29;20979;-79
2021/04/18 09:01:04;;;;;;;8.80;7.33;;;;;;;;;;4937245;29;20515;-76
2021/04/18 09:03:31;;;;;;;10.13;7.93;;;;;;;;;;4954057;29;20435;-80
2021/04/18 09:06:20;;;;;;;8.00;7.20;;;;;;;;;;4957334;29;20518;-79
2021/04/18 09:08:55;;;;;;;7.40;6.20;;;;;;;;;;4960441;29;20502;-77
2021/04/18 09:11:21;;;;;;;9.48;7.90;;;;;;;;;;4957372;29;20430;-77
2021/04/18 09:13:58;;;;;;;8.90;8.03;;;;;;;;;;4956986;29;20184;-77
2021/04/18 09:16:29;;;;;;;9.30;6.77;;;;;;;;;;4956835;29;20427;-78
2021/04/18 09:19:16;;;;;;;8.10;7.30;;;;;;;;;;4956774;29;20532;-78
2021/04/18 09:21:42;;;;;;;11.23;6.97;;;;;;;;;;4940868;29;20499;-78
2021/04/18 09:24:09;;;;;;;10.20;6.40;;;;;;;;;;4948464;28;20862;-80
2021/04/18 09:26:35;;;;;;;11.23;7.40;;;;;;;;;;4937953;29;20420;-79
2021/04/18 09:29:22;;;;;;;7.23;6.53;;;;;;;;;;4937577;29;20436;-79
2021/04/18 09:32:03;;;;;;;6.43;5.83;;;;;;;;;;4920354;29;20857;-78
2021/04/18 09:34:29;;;;;;;7.00;6.30;;;;;;;;;;4937750;29;20432;-79
2021/04/18 09:36:57;;;;;;;8.90;6.67;;;;;;;;;;4937802;29;20776;-80
2021/04/18 09:39:28;;;;;;;9.90;6.40;;;;;;;;;;4955641;29;20478;-77
2021/04/18 09:41:55;;;;;;;6.87;6.17;;;;;;;;;;4941638;29;20522;-84
2021/04/18 09:44:27;;;;;;;6.37;5.80;;;;;;;;;;4951676;29;20514;-82
2021/04/18 09:46:53;;;;;;;8.13;5.37;;;;;;;;;;4956974;29;20498;-82
2021/04/18 09:49:20;;;;;;;9.07;5.70;;;;;;;;;;4957183;29;20485;-84
2021/04/18 09:52:00;;;;;;;9.60;6.70;;;;;;;;;;4956678;29;20502;-80
2021/04/18 09:54:30;;;;;;;7.20;5.87;;;;;;;;;;4956758;29;20415;-83
2021/04/18 09:57:15;;;;;;;7.50;6.63;;;;;;;;;;4957323;29;20921;-83
2021/04/18 09:59:41;;;;;;;7.23;5.90;;;;;;;;;;4956384;29;20529;-82
2021/04/18 10:02:14;;;;;;;14.43;7.03;;;;;;;;;;4939023;29;20447;-84
2021/04/18 10:04:41;;;;;;;6.03;5.33;;;;;;;;;;4939987;29;20420;-85
2021/04/18 10:07:08;;;;;;;7.70;6.23;;;;;;;;;;4956795;29;20423;-83
2021/04/18 10:09:53;;;;;;;6.83;5.43;;;;;;;;;;4957028;29;20954;-84
2021/04/18 10:12:19;;;;;;;7.07;6.30;;;;;;;;;;4956582;29;20753;-79
2021/04/18 10:15:01;;;;;;;6.10;5.50;;;;;;;;;;4938780;29;20439;-83
2021/04/18 10:17:36;;;;;;;7.00;6.30;;;;;;;;;;4956029;29;20415;-81
2021/04/18 10:20:04;;;;;;;7.63;6.67;;;;;;;;;;4956424;29;20810;-79
2021/04/18 10:22:31;;;;;;;6.03;5.43;;;;;;;;;;4956747;29;20431;-83
2021/04/18 10:24:58;;;;;;;6.37;5.77;;;;;;;;;;4957776;28;20506;-81
2021/04/18 10:27:30;;;;;;;7.30;6.60;;;;;;;;;;4975735;28;20419;-82
2021/04/18 10:29:57;;;;;;;9.33;6.30;;;;;;;;;;4976719;28;20449;-79
2021/04/18 10:32:23;;;;;;;7.50;6.00;;;;;;;;;;4981209;28;20435;-78
2021/04/18 10:34:50;;;;;;;7.50;6.20;;;;;;;;;;4988691;28;20432;-80
2021/04/18 10:37:17;;;;;;;14.70;6.80;;;;;;;;;;4981076;28;21022;-83
2021/04/18 10:39:43;;;;;;;8.27;6.60;;;;;;;;;;4972010;28;20558;-84
2021/04/18 10:42:11;;;;;;;8.33;6.63;;;;;;;;;;4973127;28;20476;-83
2021/04/18 10:44:37;;;;;;;9.90;6.93;;;;;;;;;;4973014;28;20436;-81
2021/04/18 10:47:06;;;;;;;16.83;6.73;;;;;;;;;;4973283;28;20461;-85
2021/04/18 10:49:32;;;;;;;8.27;6.33;;;;;;;;;;4976597;28;20431;-84
2021/04/18 10:51:59;;;;;;;6.93;6.23;;;;;;;;;;4976739;28;20423;-84
2021/04/18 10:54:25;;;;;;;8.00;6.10;;;;;;;;;;4975607;28;20458;-83
2021/04/18 10:56:54;;;;;;;10.80;7.00;;;;;;;;;;4975693;28;20509;-82
2021/04/18 10:59:21;;;;;;;8.10;6.60;;;;;;;;;;4975267;28;20453;-77
2021/04/18 11:01:48;;;;;;;8.53;7.40;;;;;;;;;;4974463;28;20995;-79
2021/04/18 11:04:15;;;;;;;8.67;6.60;;;;;;;;;;4967359;28;20430;-80
2021/04/18 11:06:42;;;;;;;8.13;7.27;;;;;;;;;;4973722;28;20462;-76
2021/04/18 11:09:08;;;;;;;8.43;6.53;;;;;;;;;;4957780;28;20418;-81
2021/04/18 11:11:34;;;;;;;9.50;8.50;;;;;;;;;;4972228;28;20424;-83
2021/04/18 11:14:00;;;;;;;13.20;7.90;;;;;;;;;;4955400;29;20894;-75
2021/04/18 11:16:27;;;;;;;8.37;7.40;;;;;;;;;;4954608;29;20437;-79
2021/04/18 11:18:54;;;;;;;8.63;7.37;;;;;;;;;;4955443;29;20502;-80
2021/04/18 11:21:20;;;;;;;13.50;7.57;;;;;;;;;;4955487;29;20475;-84
2021/04/18 11:23:46;;;;;;;9.83;7.70;;;;;;;;;;4946365;28;20547;-85
2021/04/18 11:26:12;;;;;;;7.77;7.03;;;;;;;;;;4935230;29;20436;-82
2021/04/18 11:28:38;;;;;;;10.40;7.87;;;;;;;;;;4935990;29;20831;-84
2021/04/18 11:31:04;;;;;;;7.70;6.67;;;;;;;;;;4923734;29;20774;-83
2021/04/18 11:33:31;;;;;;;8.30;6.37;;;;;;;;;;4942898;29;20896;-86
2021/04/18 11:35:57;;;;;;;12.27;8.63;;;;;;;;;;4920913;29;20428;-86
2021/04/18 11:38:23;;;;;;;8.10;7.27;;;;;;;;;;4936319;29;20435;-83
2021/04/18 11:40:49;;;;;;;12.20;7.70;;;;;;;;;;4936189;29;20979;-85
2021/04/18 11:43:15;;;;;;;10.20;7.57;;;;;;;;;;4936567;29;20553;-84
2021/04/18 11:45:41;;;;;;;7.47;6.70;;;;;;;;;;4935679;29;20439;-85
2021/04/18 11:48:08;;;;;;;10.97;7.90;;;;;;;;;;4935859;29;20427;-85
2021/04/18 11:50:34;;;;;;;7.83;7.03;;;;;;;;;;4918829;29;20968;-84
2021/04/18 11:53:00;;;;;;;9.07;6.83;;;;;;;;;;4936014;29;20867;-84
2021/04/18 11:55:26;;;;;;;8.27;6.00;;;;;;;;;;4936156;29;20499;-85
2021/04/18 11:57:53;;;;;;;8.73;6.93;;;;;;;;;;4935886;29;20425;-85
2021/04/18 12:00:20;;;;;;;7.20;6.50;;;;;;;;;;4918034;29;20488;-84
2021/04/18 12:02:46;;;;;;;7.73;6.73;;;;;;;;;;4935665;29;20430;-81
2021/04/18 12:05:13;;;;;;;10.87;6.83;;;;;;;;;;4936564;29;20453;-85
2021/04/18 12:07:40;;;;;;;8.17;7.20;;;;;;;;;;4937929;28;20427;-86
2021/04/18 12:10:07;;;;;;;8.07;7.00;;;;;;;;;;4954863;29;20442;-85
2021/04/18 12:12:34;;;;;;;9.63;6.83;;;;;;;;;;4955092;29;20445;-86
2021/04/18 12:15:00;;;;;;;10.50;7.93;;;;;;;;;;4954964;29;20443;-85
2021/04/18 12:17:27;;;;;;;7.83;7.07;;;;;;;;;;4954347;29;20425;-86
2021/04/18 12:19:56;;;;;;;9.20;6.70;;;;;;;;;;4954821;29;20530;-87
2021/04/18 12:22:22;;;;;;;10.90;8.10;;;;;;;;;;4954811;28;20442;-85
2021/04/18 12:24:48;;;;;;;9.27;7.10;;;;;;;;;;4966024;28;20492;-81
2021/04/18 12:27:15;;;;;;;9.23;6.80;;;;;;;;;;4976119;29;20451;-81
2021/04/18 12:29:41;;;;;;;6.80;6.10;;;;;;;;;;4961773;29;20457;-84
2021/04/18 12:32:07;;;;;;;6.80;6.10;;;;;;;;;;4935091;29;22023;-86
2021/04/18 12:34:34;;;;;;;10.47;7.07;;;;;;;;;;4936319;29;20478;-85
2021/04/18 12:37:00;;;;;;;8.00;7.10;;;;;;;;;;4920271;29;20480;-85
2021/04/18 12:39:27;;;;;;;8.80;6.40;;;;;;;;;;4939585;29;20518;-86
2021/04/18 12:41:53;;;;;;;8.27;6.13;;;;;;;;;;4922228;29;20494;-86
2021/04/18 12:44:19;;;;;;;7.60;6.67;;;;;;;;;;4955146;28;20519;-87
2021/04/18 12:46:45;;;;;;;7.97;7.07;;;;;;;;;;4957891;28;20891;-83
2021/04/18 12:49:11;;;;;;;6.60;5.90;;;;;;;;;;4958068;29;20455;-85
2021/04/18 12:51:37;;;;;;;6.77;6.07;;;;;;;;;;4941177;29;20426;-84
2021/04/18 12:54:05;;;;;;;7.00;6.10;;;;;;;;;;4958301;29;20423;-83
2021/04/18 12:56:31;;;;;;;8.47;7.37;;;;;;;;;;4958181;29;20462;-87
2021/04/18 12:58:57;;;;;;;8.67;5.90;;;;;;;;;;4957841;29;20422;-82
2021/04/18 13:01:23;;;;;;;6.10;5.50;;;;;;;;;;4957545;29;20476;-85
2021/04/18 13:03:49;;;;;;;7.13;6.43;;;;;;;;;;4957921;29;20434;-84
2021/04/18 13:06:17;;;;;;;6.27;5.67;;;;;;;;;;4957741;28;20422;-86
2021/04/18 13:08:43;;;;;;;8.17;6.13;;;;;;;;;;4957891;29;20427;-86
2021/04/18 13:11:09;;;;;;;7.77;7.07;;;;;;;;;;4959520;29;20422;-86
2021/04/18 13:13:35;;;;;;;9.00;6.83;;;;;;;;;;4943692;29;20447;-85
2021/04/18 13:16:01;;;;;;;7.20;6.17;;;;;;;;;;4938362;29;20427;-83
2021/04/18 13:18:28;;;;;;;7.30;5.63;;;;;;;;;;4921488;29;20435;-83
2021/04/18 13:20:54;;;;;;;6.23;5.67;;;;;;;;;;4938486;29;20827;-87
2021/04/18 13:23:20;;;;;;;6.97;6.10;;;;;;;;;;4938343;28;20486;-84
2021/04/18 13:25:48;;;;;;;8.33;6.00;;;;;;;;;;4938439;29;20442;-85
2021/04/18 13:28:14;;;;;;;5.77;5.17;;;;;;;;;;4921006;29;20454;-87
2021/04/18 13:30:42;;;;;;;8.33;5.73;;;;;;;;;;4937867;29;20845;-85
2021/04/18 13:33:08;;;;;;;7.13;5.80;;;;;;;;;;4921448;29;20948;-86
2021/04/18 13:35:34;;;;;;;10.53;6.40;;;;;;;;;;4938095;29;20432;-83
2021/04/18 13:38:01;;;;;;;5.33;4.83;;;;;;;;;;4938234;29;20771;-86
2021/04/18 13:40:27;;;;;;;6.30;5.67;;;;;;;;;;4938123;29;20807;-83
2021/04/18 13:42:53;;;;;;;8.03;6.23;;;;;;;;;;4937947;29;20443;-86
2021/04/18 13:45:20;;;;;;;6.27;5.67;;;;;;;;;;4937465;29;20435;-82
2021/04/18 13:47:46;;;;;;;10.53;6.30;;;;;;;;;;4920618;29;20944;-84
2021/04/18 13:50:13;;;;;;;8.07;5.93;;;;;;;;;;4937249;29;20423;-83
2021/04/18 13:52:40;;;;;;;9.77;7.70;;;;;;;;;;4945894;28;20791;-82
2021/04/18 13:55:08;;;;;;;7.60;6.33;;;;;;;;;;4957994;29;20430;-84
2021/04/18 13:57:34;;;;;;;7.80;7.00;;;;;;;;;;4957317;29;20418;-88
2021/04/18 14:00:00;;;;;;;11.00;6.90;;;;;;;;;;4956676;29;20506;-77
2021/04/18 14:02:29;;;;;;;6.77;6.07;;;;;;;;;;4956125;29;20497;-82
2021/04/18 14:04:55;;;;;;;7.00;6.30;;;;;;;;;;4956815;29;20472;-80
2021/04/18 14:07:21;;;;;;;6.63;6.03;;;;;;;;;;4954142;28;20438;-79
2021/04/18 14:09:47;;;;;;;8.20;6.27;;;;;;;;;;4934079;28;21009;-78
2021/04/18 14:12:13;;;;;;;7.90;6.40;;;;;;;;;;4955551;28;20442;-78
2021/04/18 14:14:39;;;;;;;8.87;5.93;;;;;;;;;;4953884;28;20877;-79
2021/04/18 14:17:05;;;;;;;6.70;6.17;;;;;;;;;;4955102;28;20471;-76
2021/04/18 14:19:32;;;;;;;9.47;7.33;;;;;;;;;;4955643;28;20468;-76
2021/04/18 14:21:59;;;;;;;7.60;6.73;;;;;;;;;;4966014;28;20453;-76
2021/04/18 14:24:25;;;;;;;7.50;6.73;;;;;;;;;;4965796;28;20476;-79
2021/04/18 14:26:51;;;;;;;7.90;7.20;;;;;;;;;;4956803;29;20420;-79
2021/04/18 14:29:17;;;;;;;9.60;6.77;;;;;;;;;;4956523;29;20416;-76
2021/04/18 14:31:44;;;;;;;6.83;6.13;;;;;;;;;;4956203;28;20437;-78
2021/04/18 14:34:12;;;;;;;8.23;7.07;;;;;;;;;;4937185;29;20432;-77
2021/04/18 14:36:38;;;;;;;6.87;6.13;;;;;;;;;;4937475;29;20430;-84
2021/04/18 14:39:05;;;;;;;8.83;6.00;;;;;;;;;;4937505;29;20417;-85
2021/04/18 14:41:32;;;;;;;6.97;6.23;;;;;;;;;;4937104;29;20515;-83